気象予報士の航空気象 悪夢ふたたび、欧州火山灰 空港閉鎖

*All archives   *Admin

スポンサーサイト

上記の広告は1ヶ月以上更新のないブログに表示されています。
新しい記事を書く事で広告が消せます。
--:--  |  スポンサー広告  |  EDIT  |  Top↑

2010.05.17 (Mon)

悪夢ふたたび、欧州火山灰 空港閉鎖

VA17MAY2010.jpg



速報  ロンドン、アムステルダムなどが閉鎖されたようです。


EGLL 170220Z 28003KT CAVOK 06/03 Q1020

EGLL 162300Z 1700/1806 30006KT 9999 SCT030
PROB30
TEMPO 1709/1716 7000 SHRA



EHAM 170225Z 24008KT 6000 FEW007 10/09 Q1017 TEMPO RA BECMG 9999

EHAM 162259Z 1700/1806 23005KT 9999 SCT020 BKN040
TEMPO 1700/1705 6000 RA BKN006
PROB30
TEMPO 1700/1706 4000 BR
BECMG 1705/1708 30008KT 9999 SCT025
PROB40
TEMPO 1708/1715 6000 -SHRA SCT018CB
BECMG 1710/1713 32014KT
BECMG 1719/1722 32005KT CAVOK
PROB30 1800/1806 3000 BCFG










欧州火山灰動向予報 ← クリック



火山灰が飛行機の運航に影響する理由に興味のある方は、下記をクリック。


過去の火山に関するブログ
浅間山噴火 火山灰と飛行機
浅間山噴火 火山灰と飛行機 その2


ブリティッシュ・エアウェイズ9便エンジン故障事故 ウィキペディアより
ブリティッシュ・エアウェイズ9便エンジン故障事故



 
ブログランキングに参加しています。
にほんブログ村 環境ブログ 天気・気象学へ
にほんブログ村
応援クリックをおねがします。


以下、アフィリエイトサイトです。



スポンサーサイト
11:45  |  火山灰  |  TB(0)  |  CM(0)  |  EDIT  |  Top↑

コメントを投稿する


 管理者だけに表示  (非公開コメント投稿可能)

▲PageTop

この記事のトラックバックURL

→http://weathereucalyptus.blog115.fc2.com/tb.php/488-406c1ccc
この記事にトラックバックする(FC2ブログユーザー)

この記事へのトラックバック

▲PageTop

 | BLOGTOP | 
上記広告は1ヶ月以上更新のないブログに表示されています。新しい記事を書くことで広告を消せます。